Sierra Nevada Aquatic Research Lab (SNARL) Reserve, Santa Monica Mtns, California Weather observations

Data are for 10 minute period ending at time listed.
 Day   Time   Solar   Ave.   Ave.  Ave.  Vector  Max.   Baro.   Total    
  of    of     Rad.   Air    Rel.  Wind   Wind   Wind  Press.  Precip.   
Year   Day            Temp.  Hum.  Speed  Dir.   Gust                    
2014   (PST)  Kw/m2    F      %     mph   deg.    mph    mb.     in.     
-------------------------------------------------------------------------
 203   17:10   0.36   78.7    18    8.5   237    25.0   788.6    0.00 
 203   17:20   0.32   76.4    20    9.6   247    22.3   788.7    0.00 
 203   17:30   0.28   74.8    26   12.7   242    21.7   788.7    0.00 
 203   17:40   0.25   74.1    30   10.2   240    17.2   788.8    0.00 
 203   17:50   0.22   74.4    26    9.7   243    16.4   788.9    0.00 
 203   18:00   0.18   73.8    28    8.9   253    19.1   789.0    0.00 
 203   18:10   0.15   73.4    30    4.6   277    10.8   789.1    0.00 
 203   18:20   0.12   73.8    27    3.1   280     7.4   789.1    0.00 
 203   18:30   0.09   73.6    26    3.8   256     7.8   789.1    0.00 
 203   18:40   0.06   72.6    26    4.0   239     8.9   789.1    0.00 
 203   18:50   0.04   71.8    26    3.5   221     6.9   789.1    0.00 
 203   19:00   0.01   69.1    29    4.3   231     7.6   789.2    0.00 
 203   19:10   0.00   67.5    32    3.4   290     8.1   789.3    0.00 
 203   19:20   0.00   65.3    41    6.6     2    13.9   789.4    0.00 
 203   19:30   0.00   64.5    42    3.9   341    10.3   789.5    0.00 
 203   19:40   0.00   63.4    44    4.4   278     9.3   789.5    0.00 
 203   19:50   0.00   62.4    44    2.0   256     5.0   789.6    0.00 
 203   20:00   0.00   62.1    45    4.0   305    11.6   789.7    0.00 
 203   20:10   0.00   62.0    46    4.4   277    10.2   789.7    0.00 
 203   20:20   0.00   61.6    47    5.4   285    10.7   789.8    0.00 
 203   20:30   0.00   61.4    47    6.7   270    13.5   789.9    0.00 
 203   20:40   0.00   61.1    47    7.5   265    13.5   789.9    0.00 
 203   20:50   0.00   61.3    46    9.3   246    14.2   789.9    0.00 
 203   21:00   0.00   60.9    48   10.5   259    16.1   789.9    0.00 
 203   21:10   0.00   60.6    49   12.0   261    19.3   790.0    0.00 
 203   21:20   0.00   60.2    50   12.3   263    17.8   790.0    0.00 
 203   21:30   0.00   60.1    50   12.3   265    18.9   790.0    0.00 
 203   21:40   0.00   60.0    50   11.6   258    19.4   790.0    0.00 
 203   21:50   0.00   59.7    50   12.7   257    19.6   790.0    0.00 
 203   22:00   0.00   59.3    51   10.7   256    18.3   790.0    0.00 
 203   22:10   0.00   59.8    48   10.4   258    16.4   789.9    0.00 
 203   22:20   0.00   59.6    48    8.4   250    14.5   789.9    0.00 
 203   22:30   0.00   59.6    45    7.9   230    16.0   790.0    0.00 
 203   22:40   0.00   58.9    45    4.0   191     9.4   790.0    0.00 
 203   22:50   0.00   55.7    48    1.9   182     4.3   790.0    0.00 
 203   23:00   0.00   53.8    54    3.4    82     7.1   790.0    0.00 
 203   23:10   0.00   52.1    56    2.6   157     5.0   790.0    0.00 
 203   23:20   0.00   49.5    58    1.2   210     3.1   790.1    0.00 
 203   23:30   0.00   49.1    60    1.7   191     4.5   790.0    0.00 
 203   23:40   0.00   48.5    64    1.4   212     3.7   790.0    0.00 
 203   23:50   0.00   49.2    62    1.5   232     3.1   790.0    0.00 
 204    0:00   0.00   48.8    61    3.7   217     7.7   790.0    0.00 
 204    0:10   0.00   49.8    58    3.7   222     5.9   790.1    0.00 
 204    0:20   0.00   50.4    57    4.3   250     7.2   790.1    0.00 
 204    0:30   0.00   51.5    54    4.0   263     6.4   790.0    0.00 
 204    0:40   0.00   51.9    54    3.6   261     5.6   790.0    0.00 
 204    0:50   0.00   49.4    56    3.5   234     5.4   790.0    0.00 
 204    1:00   0.00   48.2    60    3.0   285     4.7   790.1    0.00 
 204    1:10   0.00   47.3    62    1.1   286     4.3   790.0    0.00 
 204    1:20   0.00   45.5    66    1.9   231     4.2   789.9    0.00 
 204    1:30   0.00   44.7    64    3.4   235     5.3   789.8    0.00 
 204    1:40   0.00   45.1    65    2.3   300     6.0   789.7    0.00 
 204    1:50   0.00   44.8    66    2.4    40     5.4   789.8    0.00 
 204    2:00   0.00   42.9    69    3.4   244     5.0   789.8    0.00 
 204    2:10   0.00   42.0    68    2.7   232     4.2   789.8    0.00 
 204    2:20   0.00   42.4    68    1.9   193     3.1   789.7    0.00 
 204    2:30   0.00   43.5    66    2.0   232     4.6   789.7    0.00 
 204    2:40   0.00   43.8    68    1.5   278     2.7   789.7    0.00 
 204    2:50   0.00   43.6    67    3.5   299     6.6   789.6    0.00 
 204    3:00   0.00   43.0    67    2.1   262     5.0   789.6    0.00 
 204    3:10   0.00   41.0    70    1.6   260     3.4   789.6    0.00 
 204    3:20   0.00   40.2    74    1.8   242     3.3   789.6    0.00 
 204    3:30   0.00   39.6    73    2.2   234     3.6   789.5    0.00 
 204    3:40   0.00   39.4    78    2.0   317     4.2   789.5    0.00 
 204    3:50   0.00   38.2    76    2.3   283     4.0   789.5    0.00 
 204    4:00   0.00   38.6    76    2.3   262     3.4   789.5    0.00 
 204    4:10   0.00   38.4    75    1.6   252     3.0   789.5    0.00 
 204    4:20   0.00   38.5    76    1.7   277     3.6   789.6    0.00 
 204    4:30   0.00   38.6    78    1.6   293     3.7   789.6    0.00 
 204    4:40   0.00   38.2    75    1.1   240     2.8   789.7    0.00 
 204    4:50   0.00   38.0    77    0.8   217     2.5   789.8    0.00 
 204    5:00   0.00   38.0    79    1.6   228     2.6   789.8    0.00 
 204    5:10   0.00   38.1    75    2.0   231     4.2   789.9    0.00 
 204    5:20   0.01   39.5    73    2.3   223     3.7   789.9    0.00 
 204    5:30   0.01   40.2    77    1.2   280     2.8   789.9    0.00 
 204    5:40   0.04   41.9    76    1.2   280     3.1   789.9    0.00 
 204    5:50   0.12   45.0    69    1.8   331     5.8   790.0    0.00 
 204    6:00   0.16   48.3    57    1.9   327     5.0   790.0    0.00 
 204    6:10   0.19   50.1    53    3.0   316     4.1   790.0    0.00 
 204    6:20   0.23   52.4    51    1.7   311     3.5   790.0    0.00 
 204    6:30   0.26   56.2    47    0.9    29     2.0   789.9    0.00 
 204    6:40   0.30   59.3    43    0.1   212     1.1   789.8    0.00 
 204    6:50   0.33   61.6    43    1.6    32     3.4   789.7    0.00 
 204    7:00   0.37   62.2    40    2.3    62     5.2   789.6    0.00 
 204    7:10   0.41   62.3    42    2.0    66     4.5   789.7    0.00 
 204    7:20   0.44   63.1    42    1.8    61     4.2   789.7    0.00 
 204    7:30   0.47   63.8    39    2.6    58     4.6   789.7    0.00 
 204    7:40   0.51   65.3    36    3.2    56     7.3   789.8    0.00 
 204    7:50   0.54   66.0    34    5.5    75    11.1   789.9    0.00 
 204    8:00   0.57   66.8    33    7.7    86    12.5   789.9    0.00 
 204    8:10   0.61   67.2    32    6.7    86    10.8   789.9    0.00 
 204    8:20   0.64   68.3    30    6.9    89    12.0   789.9    0.00 
 204    8:30   0.67   69.0    29    5.3    73    10.3   789.9    0.00 
 204    8:40   0.70   70.0    27    5.9    86    11.2   789.9    0.00 
 204    8:50   0.69   70.8    26    4.3    73     8.4   790.0    0.00 
 204    9:00   0.76   71.6    24    3.8    83     9.9   789.9    0.00 
 204    9:10   0.79   72.6    23    3.6    64     7.7   789.9    0.00 
 204    9:20   0.81   73.6    21    2.9    59     8.3   789.9    0.00 
 204    9:30   0.84   75.0    19    2.9    64     7.5   789.8    0.00 
 204    9:40   0.86   75.7    18    5.2    86     9.6   789.8    0.00 
 204    9:50   0.88   76.1    17    5.0    86     8.4   789.8    0.00 
 204   10:00   0.90   77.4    15    3.8    64     7.0   789.8    0.00 
 204   10:10   0.92   78.3    13    3.2    43     7.3   789.7    0.00 
 204   10:20   0.94   78.9    12    4.4    82    10.2   789.7    0.00 
 204   10:30   0.95   79.4    12    8.1    99    15.9   789.6    0.00 
 204   10:40   0.97   80.2     9    4.5   120     9.9   789.6    0.00 
 204   10:50   0.98   80.6    10    3.4    66     8.4   789.4    0.00 
 204   11:00   0.99   81.3     9    3.9    77     8.8   789.4    0.00 
 204   11:10   1.00   82.5     9    3.3    95     7.0   789.4    0.00 
 204   11:20   1.01   82.4     9    3.7    76     8.1   789.3    0.00 
 204   11:30   1.01   83.3     8    3.0   241     9.9   789.3    0.00 
 204   11:40   1.02   82.9    10    8.8    98    19.1   789.2    0.00 
 204   11:50   1.02   83.0    11    8.5   125    15.5   789.2    0.00 
 204   12:00   1.02   83.6    11    6.1   119    18.4   789.2    0.00 
 204   12:10   1.02   82.8    10    4.1    88    10.2   789.1    0.00 
 204   12:20   1.02   82.1     9    8.9   249    20.6   789.1    0.00 
 204   12:30   1.02   82.6     8   11.6   237    34.3   789.0    0.00 
 204   12:40   1.01   84.2     9    8.0   243    20.5   788.9    0.00 
 204   12:50   1.00   84.3     9   11.8   244    28.1   788.9    0.00 
 204   13:00   0.99   83.9    10   12.3   247    25.5   788.7    0.00 
 204   13:10   0.99   84.3    10   12.8   232    28.1   788.8    0.00 
 204   13:20   0.98   84.1    10   16.9   240    30.5   788.7    0.00 
 204   13:30   0.96   83.7    11   12.6   240    25.1   788.7    0.00 
 204   13:40   0.95   84.3    11   13.0   258    22.3   788.6    0.00 
 204   13:50   0.94   84.2    12   12.2   230    23.8   788.6    0.00 
 204   14:00   0.92   84.6    11   12.3   246    31.9   788.5    0.00 
 204   14:10   0.90   84.4    12   15.1   247    29.1   788.4    0.00 
 204   14:20   0.88   83.8    11   14.7   240    32.1   788.4    0.00 
 204   14:30   0.85   84.7    12   11.8   230    22.9   788.3    0.00 
 204   14:40   0.83   83.9    12   10.5   244    22.8   788.3    0.00 
 204   14:50   0.81   83.7    12   11.0   235    25.4   788.3    0.00 
 204   15:00   0.78   84.3    11    7.7   242    19.0   788.2    0.00 
 204   15:10   0.76   83.6    11   14.2   235    32.4   788.2    0.00 
 204   15:20   0.73   82.9    10   17.3   231    33.3   788.2    0.00 
 204   15:30   0.69   83.3    10   12.2   255    22.1   788.1    0.00 
 204   15:40   0.67   83.2    10   12.8   247    26.5   788.1    0.00 
 204   15:50   0.63   82.7    10   14.3   219    38.7   788.1    0.00 
 204   16:00   0.60   83.0    10   14.9   234    29.5   788.0    0.00 
 204   16:10   0.57   82.5    10   13.8   247    31.9   788.0    0.00 
 204   16:20   0.53   82.5    11   11.4   238    23.6   787.9    0.00 
 204   16:30   0.50   82.4    10   10.9   229    26.0   787.9    0.00 
 204   16:40   0.46   82.1    12   10.9   253    25.8   787.8    0.00 
 204   16:50   0.43   81.9    11   12.5   233    27.8   787.8    0.00 
 204   17:00   0.39   81.4    12   11.2   241    22.4   787.8    0.00 

Return to SNARL Reserve graphs page.


Western Regional Climate Center,wrcc@dri.edu